sensor_id;sensor_type;location;lat;lon;timestamp;P1;P2;P0
73565;PMS5003;61846;52.970;-3.168;2022-09-14T00:01:30;3;3;
73565;PMS5003;61846;52.970;-3.168;2022-09-14T00:03:56;3;2;
73565;PMS5003;61846;52.970;-3.168;2022-09-14T00:06:20;5;5;
73565;PMS5003;61846;52.970;-3.168;2022-09-14T00:08:48;6;4;
73565;PMS5003;61846;52.970;-3.168;2022-09-14T00:11:12;5;5;
73565;PMS5003;61846;52.970;-3.168;2022-09-14T00:13:37;4;4;
73565;PMS5003;61846;52.970;-3.168;2022-09-14T00:16:03;2;2;
73565;PMS5003;61846;52.970;-3.168;2022-09-14T00:18:28;7;3;
73565;PMS5003;61846;52.970;-3.168;2022-09-14T00:20:57;4;3;
73565;PMS5003;61846;52.970;-3.168;2022-09-14T00:23:18;2;2;
73565;PMS5003;61846;52.970;-3.168;2022-09-14T00:25:44;2;2;
73565;PMS5003;61846;52.970;-3.168;2022-09-14T00:28:09;3;3;
73565;PMS5003;61846;52.970;-3.168;2022-09-14T00:30:39;3;3;
73565;PMS5003;61846;52.970;-3.168;2022-09-14T00:33:00;3;3;
73565;PMS5003;61846;52.970;-3.168;2022-09-14T00:35:26;4;2;
73565;PMS5003;61846;52.970;-3.168;2022-09-14T00:37:51;7;4;
73565;PMS5003;61846;52.970;-3.168;2022-09-14T00:40:18;4;4;
73565;PMS5003;61846;52.970;-3.168;2022-09-14T00:42:42;5;3;
73565;PMS5003;61846;52.970;-3.168;2022-09-14T00:45:13;6;4;
73565;PMS5003;61846;52.970;-3.168;2022-09-14T00:47:33;1;1;
73565;PMS5003;61846;52.970;-3.168;2022-09-14T00:49:59;5;5;
73565;PMS5003;61846;52.970;-3.168;2022-09-14T00:52:25;5;3;
73565;PMS5003;61846;52.970;-3.168;2022-09-14T00:54:51;6;4;
73565;PMS5003;61846;52.970;-3.168;2022-09-14T00:57:16;5;4;
73565;PMS5003;61846;52.970;-3.168;2022-09-14T00:59:41;7;7;
73565;PMS5003;61846;52.970;-3.168;2022-09-14T01:02:07;2;2;
73565;PMS5003;61846;52.970;-3.168;2022-09-14T01:04:32;3;3;
73565;PMS5003;61846;52.970;-3.168;2022-09-14T01:07:00;5;3;
73565;PMS5003;61846;52.970;-3.168;2022-09-14T01:09:25;7;5;
73565;PMS5003;61846;52.970;-3.168;2022-09-14T01:12:02;4;4;
73565;PMS5003;61846;52.970;-3.168;2022-09-14T01:14:15;6;4;
73565;PMS5003;61846;52.970;-3.168;2022-09-14T01:16:41;3;3;
73565;PMS5003;61846;52.970;-3.168;2022-09-14T01:19:06;4;3;
73565;PMS5003;61846;52.970;-3.168;2022-09-14T01:21:31;4;2;
73565;PMS5003;61846;52.970;-3.168;2022-09-14T01:23:58;5;5;
73565;PMS5003;61846;52.970;-3.168;2022-09-14T01:26:28;6;4;
73565;PMS5003;61846;52.970;-3.168;2022-09-14T01:28:48;7;6;
73565;PMS5003;61846;52.970;-3.168;2022-09-14T01:31:14;5;4;
73565;PMS5003;61846;52.970;-3.168;2022-09-14T01:33:38;3;3;
73565;PMS5003;61846;52.970;-3.168;2022-09-14T01:36:04;3;3;
73565;PMS5003;61846;52.970;-3.168;2022-09-14T01:38:30;6;5;
73565;PMS5003;61846;52.970;-3.168;2022-09-14T01:40:54;5;5;
73565;PMS5003;61846;52.970;-3.168;2022-09-14T01:43:21;4;3;
73565;PMS5003;61846;52.970;-3.168;2022-09-14T01:45:47;4;4;
73565;PMS5003;61846;52.970;-3.168;2022-09-14T01:48:11;6;6;
73565;PMS5003;61846;52.970;-3.168;2022-09-14T01:50:37;3;3;
73565;PMS5003;61846;52.970;-3.168;2022-09-14T01:53:04;7;5;
73565;PMS5003;61846;52.970;-3.168;2022-09-14T01:55:28;2;2;
73565;PMS5003;61846;52.970;-3.168;2022-09-14T01:57:54;3;3;
73565;PMS5003;61846;52.970;-3.168;2022-09-14T02:00:19;4;2;
73565;PMS5003;61846;52.970;-3.168;2022-09-14T02:02:45;4;4;
73565;PMS5003;61846;52.970;-3.168;2022-09-14T02:05:11;7;5;
73565;PMS5003;61846;52.970;-3.168;2022-09-14T02:07:35;3;3;
73565;PMS5003;61846;52.970;-3.168;2022-09-14T02:10:00;4;4;
73565;PMS5003;61846;52.970;-3.168;2022-09-14T02:12:26;4;3;
73565;PMS5003;61846;52.970;-3.168;2022-09-14T02:14:52;3;3;
73565;PMS5003;61846;52.970;-3.168;2022-09-14T02:17:17;3;3;
73565;PMS5003;61846;52.970;-3.168;2022-09-14T02:19:43;4;4;
73565;PMS5003;61846;52.970;-3.168;2022-09-14T02:22:08;4;2;
73565;PMS5003;61846;52.970;-3.168;2022-09-14T02:24:34;2;2;
73565;PMS5003;61846;52.970;-3.168;2022-09-14T02:26:59;4;4;
73565;PMS5003;61846;52.970;-3.168;2022-09-14T02:29:25;5;3;
73565;PMS5003;61846;52.970;-3.168;2022-09-14T02:31:54;3;2;
73565;PMS5003;61846;52.970;-3.168;2022-09-14T02:34:19;2;2;
73565;PMS5003;61846;52.970;-3.168;2022-09-14T02:36:45;3;3;
73565;PMS5003;61846;52.970;-3.168;2022-09-14T02:39:10;10;7;
73565;PMS5003;61846;52.970;-3.168;2022-09-14T02:41:34;3;3;
73565;PMS5003;61846;52.970;-3.168;2022-09-14T02:43:59;5;3;
73565;PMS5003;61846;52.970;-3.168;2022-09-14T02:46:25;4;3;
73565;PMS5003;61846;52.970;-3.168;2022-09-14T02:48:51;5;4;
73565;PMS5003;61846;52.970;-3.168;2022-09-14T02:51:17;2;2;
73565;PMS5003;61846;52.970;-3.168;2022-09-14T02:53:41;5;5;
73565;PMS5003;61846;52.970;-3.168;2022-09-14T02:56:06;4;4;
73565;PMS5003;61846;52.970;-3.168;2022-09-14T02:58:33;3;3;
73565;PMS5003;61846;52.970;-3.168;2022-09-14T03:00:57;3;3;
73565;PMS5003;61846;52.970;-3.168;2022-09-14T03:03:22;4;3;
73565;PMS5003;61846;52.970;-3.168;2022-09-14T03:05:48;3;3;
73565;PMS5003;61846;52.970;-3.168;2022-09-14T03:08:13;2;2;
73565;PMS5003;61846;52.970;-3.168;2022-09-14T03:10:40;3;3;
73565;PMS5003;61846;52.970;-3.168;2022-09-14T03:13:04;5;5;
73565;PMS5003;61846;52.970;-3.168;2022-09-14T03:15:30;4;4;
73565;PMS5003;61846;52.970;-3.168;2022-09-14T03:17:55;4;3;
73565;PMS5003;61846;52.970;-3.168;2022-09-14T03:20:22;5;4;
73565;PMS5003;61846;52.970;-3.168;2022-09-14T03:22:46;7;4;
73565;PMS5003;61846;52.970;-3.168;2022-09-14T03:25:12;3;3;
73565;PMS5003;61846;52.970;-3.168;2022-09-14T03:27:38;4;4;
73565;PMS5003;61846;52.970;-3.168;2022-09-14T03:30:03;5;3;
73565;PMS5003;61846;52.970;-3.168;2022-09-14T03:32:29;4;4;
73565;PMS5003;61846;52.970;-3.168;2022-09-14T03:34:54;4;4;
73565;PMS5003;61846;52.970;-3.168;2022-09-14T03:37:19;6;4;
73565;PMS5003;61846;52.970;-3.168;2022-09-14T03:39:45;4;4;
73565;PMS5003;61846;52.970;-3.168;2022-09-14T03:42:11;3;3;
73565;PMS5003;61846;52.970;-3.168;2022-09-14T03:44:36;4;3;
73565;PMS5003;61846;52.970;-3.168;2022-09-14T03:47:02;3;3;
73565;PMS5003;61846;52.970;-3.168;2022-09-14T03:49:27;3;3;
73565;PMS5003;61846;52.970;-3.168;2022-09-14T03:51:53;6;6;
73565;PMS5003;61846;52.970;-3.168;2022-09-14T03:54:18;3;3;
73565;PMS5003;61846;52.970;-3.168;2022-09-14T03:56:44;4;3;
73565;PMS5003;61846;52.970;-3.168;2022-09-14T03:59:09;3;2;
73565;PMS5003;61846;52.970;-3.168;2022-09-14T04:01:35;6;4;
73565;PMS5003;61846;52.970;-3.168;2022-09-14T04:04:01;3;3;
73565;PMS5003;61846;52.970;-3.168;2022-09-14T04:06:26;3;3;
73565;PMS5003;61846;52.970;-3.168;2022-09-14T04:08:52;5;4;
73565;PMS5003;61846;52.970;-3.168;2022-09-14T04:11:17;4;4;
73565;PMS5003;61846;52.970;-3.168;2022-09-14T04:13:42;6;6;
73565;PMS5003;61846;52.970;-3.168;2022-09-14T04:16:08;4;4;
73565;PMS5003;61846;52.970;-3.168;2022-09-14T04:18:33;5;5;
73565;PMS5003;61846;52.970;-3.168;2022-09-14T04:21:00;7;5;
73565;PMS5003;61846;52.970;-3.168;2022-09-14T04:23:24;9;7;
73565;PMS5003;61846;52.970;-3.168;2022-09-14T04:25:50;4;4;
73565;PMS5003;61846;52.970;-3.168;2022-09-14T04:28:16;6;5;
73565;PMS5003;61846;52.970;-3.168;2022-09-14T04:30:41;5;5;
73565;PMS5003;61846;52.970;-3.168;2022-09-14T04:33:07;6;5;
73565;PMS5003;61846;52.970;-3.168;2022-09-14T04:35:32;4;4;
73565;PMS5003;61846;52.970;-3.168;2022-09-14T04:37:58;5;5;
73565;PMS5003;61846;52.970;-3.168;2022-09-14T04:40:23;7;4;
73565;PMS5003;61846;52.970;-3.168;2022-09-14T04:42:49;7;6;
73565;PMS5003;61846;52.970;-3.168;2022-09-14T04:45:15;5;4;
73565;PMS5003;61846;52.970;-3.168;2022-09-14T04:47:40;7;6;
73565;PMS5003;61846;52.970;-3.168;2022-09-14T04:50:06;5;5;
73565;PMS5003;61846;52.970;-3.168;2022-09-14T04:52:31;4;4;
73565;PMS5003;61846;52.970;-3.168;2022-09-14T04:54:56;5;5;
73565;PMS5003;61846;52.970;-3.168;2022-09-14T04:57:22;4;4;
73565;PMS5003;61846;52.970;-3.168;2022-09-14T04:59:47;6;6;
73565;PMS5003;61846;52.970;-3.168;2022-09-14T05:02:13;3;3;
73565;PMS5003;61846;52.970;-3.168;2022-09-14T05:04:38;6;6;
73565;PMS5003;61846;52.970;-3.168;2022-09-14T05:07:04;7;4;
73565;PMS5003;61846;52.970;-3.168;2022-09-14T05:09:29;4;4;
73565;PMS5003;61846;52.970;-3.168;2022-09-14T05:11:55;5;5;
73565;PMS5003;61846;52.970;-3.168;2022-09-14T05:14:21;6;6;
73565;PMS5003;61846;52.970;-3.168;2022-09-14T05:16:46;7;6;
73565;PMS5003;61846;52.970;-3.168;2022-09-14T05:19:12;3;3;
73565;PMS5003;61846;52.970;-3.168;2022-09-14T05:21:37;4;4;
73565;PMS5003;61846;52.970;-3.168;2022-09-14T05:24:04;5;5;
73565;PMS5003;61846;52.970;-3.168;2022-09-14T05:26:29;4;4;
73565;PMS5003;61846;52.970;-3.168;2022-09-14T05:28:55;6;6;
73565;PMS5003;61846;52.970;-3.168;2022-09-14T05:31:19;7;5;
73565;PMS5003;61846;52.970;-3.168;2022-09-14T05:33:45;4;4;
73565;PMS5003;61846;52.970;-3.168;2022-09-14T05:36:10;3;3;
73565;PMS5003;61846;52.970;-3.168;2022-09-14T05:38:36;4;4;
73565;PMS5003;61846;52.970;-3.168;2022-09-14T05:41:01;7;5;
73565;PMS5003;61846;52.970;-3.168;2022-09-14T05:43:27;5;4;
73565;PMS5003;61846;52.970;-3.168;2022-09-14T05:45:52;6;4;
73565;PMS5003;61846;52.970;-3.168;2022-09-14T05:48:17;7;7;
73565;PMS5003;61846;52.970;-3.168;2022-09-14T05:50:43;4;4;
73565;PMS5003;61846;52.970;-3.168;2022-09-14T05:53:09;5;5;
73565;PMS5003;61846;52.970;-3.168;2022-09-14T05:55:34;3;3;
73565;PMS5003;61846;52.970;-3.168;2022-09-14T05:57:59;5;5;
73565;PMS5003;61846;52.970;-3.168;2022-09-14T06:00:25;6;6;
73565;PMS5003;61846;52.970;-3.168;2022-09-14T06:02:51;4;4;
73565;PMS5003;61846;52.970;-3.168;2022-09-14T06:05:16;4;4;
73565;PMS5003;61846;52.970;-3.168;2022-09-14T06:07:42;5;5;
73565;PMS5003;61846;52.970;-3.168;2022-09-14T06:10:07;2;2;
73565;PMS5003;61846;52.970;-3.168;2022-09-14T06:12:32;5;4;
73565;PMS5003;61846;52.970;-3.168;2022-09-14T06:14:58;5;4;
73565;PMS5003;61846;52.970;-3.168;2022-09-14T06:17:24;6;6;
73565;PMS5003;61846;52.970;-3.168;2022-09-14T06:19:49;5;4;
73565;PMS5003;61846;52.970;-3.168;2022-09-14T06:22:14;5;5;
73565;PMS5003;61846;52.970;-3.168;2022-09-14T06:24:40;4;4;
73565;PMS5003;61846;52.970;-3.168;2022-09-14T06:27:05;4;4;
73565;PMS5003;61846;52.970;-3.168;2022-09-14T06:29:31;4;4;
73565;PMS5003;61846;52.970;-3.168;2022-09-14T06:31:56;4;4;
73565;PMS5003;61846;52.970;-3.168;2022-09-14T06:34:21;2;2;
73565;PMS5003;61846;52.970;-3.168;2022-09-14T06:36:47;6;5;
73565;PMS5003;61846;52.970;-3.168;2022-09-14T06:39:13;4;4;
73565;PMS5003;61846;52.970;-3.168;2022-09-14T06:41:38;4;3;
73565;PMS5003;61846;52.970;-3.168;2022-09-14T06:44:03;3;3;
73565;PMS5003;61846;52.970;-3.168;2022-09-14T06:46:30;4;4;
73565;PMS5003;61846;52.970;-3.168;2022-09-14T06:48:56;7;5;
73565;PMS5003;61846;52.970;-3.168;2022-09-14T06:51:21;4;4;
73565;PMS5003;61846;52.970;-3.168;2022-09-14T06:53:46;6;5;
73565;PMS5003;61846;52.970;-3.168;2022-09-14T06:56:11;8;6;
73565;PMS5003;61846;52.970;-3.168;2022-09-14T06:58:36;6;5;
73565;PMS5003;61846;52.970;-3.168;2022-09-14T07:01:02;6;6;
73565;PMS5003;61846;52.970;-3.168;2022-09-14T07:03:27;2;2;
73565;PMS5003;61846;52.970;-3.168;2022-09-14T07:05:53;5;2;
73565;PMS5003;61846;52.970;-3.168;2022-09-14T07:08:18;3;3;
73565;PMS5003;61846;52.970;-3.168;2022-09-14T07:10:44;5;5;
73565;PMS5003;61846;52.970;-3.168;2022-09-14T07:13:09;6;6;
73565;PMS5003;61846;52.970;-3.168;2022-09-14T07:15:35;11;6;
73565;PMS5003;61846;52.970;-3.168;2022-09-14T07:18:00;5;5;
73565;PMS5003;61846;52.970;-3.168;2022-09-14T07:20:26;3;3;
73565;PMS5003;61846;52.970;-3.168;2022-09-14T07:22:51;7;5;
73565;PMS5003;61846;52.970;-3.168;2022-09-14T07:25:16;7;6;
73565;PMS5003;61846;52.970;-3.168;2022-09-14T07:27:42;9;8;
73565;PMS5003;61846;52.970;-3.168;2022-09-14T07:30:08;5;5;
73565;PMS5003;61846;52.970;-3.168;2022-09-14T07:32:33;6;6;
73565;PMS5003;61846;52.970;-3.168;2022-09-14T07:34:58;7;7;
73565;PMS5003;61846;52.970;-3.168;2022-09-14T07:37:23;7;4;
73565;PMS5003;61846;52.970;-3.168;2022-09-14T07:39:49;8;7;
73565;PMS5003;61846;52.970;-3.168;2022-09-14T07:42:14;4;4;
73565;PMS5003;61846;52.970;-3.168;2022-09-14T07:44:40;7;5;
73565;PMS5003;61846;52.970;-3.168;2022-09-14T07:47:05;8;7;
73565;PMS5003;61846;52.970;-3.168;2022-09-14T07:49:30;6;6;
73565;PMS5003;61846;52.970;-3.168;2022-09-14T07:51:56;3;3;
73565;PMS5003;61846;52.970;-3.168;2022-09-14T07:54:21;7;4;
73565;PMS5003;61846;52.970;-3.168;2022-09-14T07:56:47;10;6;
73565;PMS5003;61846;52.970;-3.168;2022-09-14T07:59:13;11;5;
73565;PMS5003;61846;52.970;-3.168;2022-09-14T08:01:38;8;6;
73565;PMS5003;61846;52.970;-3.168;2022-09-14T08:04:03;10;8;
73565;PMS5003;61846;52.970;-3.168;2022-09-14T08:06:29;7;7;
73565;PMS5003;61846;52.970;-3.168;2022-09-14T08:08:55;9;6;
73565;PMS5003;61846;52.970;-3.168;2022-09-14T08:11:20;5;4;
73565;PMS5003;61846;52.970;-3.168;2022-09-14T08:13:45;5;5;
73565;PMS5003;61846;52.970;-3.168;2022-09-14T08:16:11;6;5;
73565;PMS5003;61846;52.970;-3.168;2022-09-14T08:18:36;6;5;
73565;PMS5003;61846;52.970;-3.168;2022-09-14T08:21:02;7;6;
73565;PMS5003;61846;52.970;-3.168;2022-09-14T08:23:26;7;7;
73565;PMS5003;61846;52.970;-3.168;2022-09-14T08:25:52;7;5;
73565;PMS5003;61846;52.970;-3.168;2022-09-14T08:28:17;9;6;
73565;PMS5003;61846;52.970;-3.168;2022-09-14T08:30:43;5;3;
73565;PMS5003;61846;52.970;-3.168;2022-09-14T08:33:08;6;4;
73565;PMS5003;61846;52.970;-3.168;2022-09-14T08:35:33;8;7;
73565;PMS5003;61846;52.970;-3.168;2022-09-14T08:37:59;5;5;
73565;PMS5003;61846;52.970;-3.168;2022-09-14T08:40:24;5;3;
73565;PMS5003;61846;52.970;-3.168;2022-09-14T08:42:49;9;4;
73565;PMS5003;61846;52.970;-3.168;2022-09-14T08:45:15;9;6;
73565;PMS5003;61846;52.970;-3.168;2022-09-14T08:47:41;7;5;
73565;PMS5003;61846;52.970;-3.168;2022-09-14T08:50:09;9;6;
73565;PMS5003;61846;52.970;-3.168;2022-09-14T08:52:32;6;6;
73565;PMS5003;61846;52.970;-3.168;2022-09-14T08:54:59;8;6;
73565;PMS5003;61846;52.970;-3.168;2022-09-14T08:57:25;4;4;
73565;PMS5003;61846;52.970;-3.168;2022-09-14T08:59:49;5;4;
73565;PMS5003;61846;52.970;-3.168;2022-09-14T09:02:18;6;6;
73565;PMS5003;61846;52.970;-3.168;2022-09-14T09:04:41;9;7;
73565;PMS5003;61846;52.970;-3.168;2022-09-14T09:07:06;6;6;
73565;PMS5003;61846;52.970;-3.168;2022-09-14T09:09:31;7;6;
73565;PMS5003;61846;52.970;-3.168;2022-09-14T09:11:54;10;8;
73565;PMS5003;61846;52.970;-3.168;2022-09-14T09:14:22;8;5;
73565;PMS5003;61846;52.970;-3.168;2022-09-14T09:16:47;12;7;
73565;PMS5003;61846;52.970;-3.168;2022-09-14T09:19:12;6;5;
73565;PMS5003;61846;52.970;-3.168;2022-09-14T09:21:38;7;7;
73565;PMS5003;61846;52.970;-3.168;2022-09-14T09:24:03;7;5;
73565;PMS5003;61846;52.970;-3.168;2022-09-14T09:26:27;8;6;
73565;PMS5003;61846;52.970;-3.168;2022-09-14T09:28:53;11;6;
73565;PMS5003;61846;52.970;-3.168;2022-09-14T09:31:18;6;6;
73565;PMS5003;61846;52.970;-3.168;2022-09-14T09:33:43;11;6;
73565;PMS5003;61846;52.970;-3.168;2022-09-14T09:36:09;5;4;
73565;PMS5003;61846;52.970;-3.168;2022-09-14T09:38:34;10;6;
73565;PMS5003;61846;52.970;-3.168;2022-09-14T09:41:00;5;5;
73565;PMS5003;61846;52.970;-3.168;2022-09-14T09:43:25;8;8;
73565;PMS5003;61846;52.970;-3.168;2022-09-14T09:45:52;10;7;
73565;PMS5003;61846;52.970;-3.168;2022-09-14T09:48:16;6;6;
73565;PMS5003;61846;52.970;-3.168;2022-09-14T09:50:45;6;6;
73565;PMS5003;61846;52.970;-3.168;2022-09-14T09:53:07;11;8;
73565;PMS5003;61846;52.970;-3.168;2022-09-14T09:55:33;7;5;
73565;PMS5003;61846;52.970;-3.168;2022-09-14T09:58:18;5;5;
73565;PMS5003;61846;52.970;-3.168;2022-09-14T10:00:23;7;4;
73565;PMS5003;61846;52.970;-3.168;2022-09-14T10:02:47;6;4;
73565;PMS5003;61846;52.970;-3.168;2022-09-14T10:05:19;8;6;
73565;PMS5003;61846;52.970;-3.168;2022-09-14T10:07:39;6;6;
73565;PMS5003;61846;52.970;-3.168;2022-09-14T10:10:04;9;6;
73565;PMS5003;61846;52.970;-3.168;2022-09-14T10:12:29;6;5;
73565;PMS5003;61846;52.970;-3.168;2022-09-14T10:15:03;7;4;
73565;PMS5003;61846;52.970;-3.168;2022-09-14T10:17:20;5;3;
73565;PMS5003;61846;52.970;-3.168;2022-09-14T10:19:45;7;4;
73565;PMS5003;61846;52.970;-3.168;2022-09-14T10:22:17;6;5;
73565;PMS5003;61846;52.970;-3.168;2022-09-14T10:24:36;3;2;
73565;PMS5003;61846;52.970;-3.168;2022-09-14T10:27:01;6;4;
73565;PMS5003;61846;52.970;-3.168;2022-09-14T10:29:28;1;1;
73565;PMS5003;61846;52.970;-3.168;2022-09-14T10:31:52;6;4;
73565;PMS5003;61846;52.970;-3.168;2022-09-14T10:34:18;9;6;
73565;PMS5003;61846;52.970;-3.168;2022-09-14T10:36:44;4;4;
73565;PMS5003;61846;52.970;-3.168;2022-09-14T10:39:11;5;5;
73565;PMS5003;61846;52.970;-3.168;2022-09-14T10:41:35;4;4;
73565;PMS5003;61846;52.970;-3.168;2022-09-14T10:44:04;6;3;
73565;PMS5003;61846;52.970;-3.168;2022-09-14T10:46:26;2;2;
73565;PMS5003;61846;52.970;-3.168;2022-09-14T10:48:56;3;3;
73565;PMS5003;61846;52.970;-3.168;2022-09-14T10:51:21;3;3;
73565;PMS5003;61846;52.970;-3.168;2022-09-14T10:53:43;2;2;
73565;PMS5003;61846;52.970;-3.168;2022-09-14T10:56:08;4;2;
73565;PMS5003;61846;52.970;-3.168;2022-09-14T10:58:36;5;4;
73565;PMS5003;61846;52.970;-3.168;2022-09-14T11:01:04;1;1;
73565;PMS5003;61846;52.970;-3.168;2022-09-14T11:03:26;2;2;
73565;PMS5003;61846;52.970;-3.168;2022-09-14T11:05:50;0;0;
73565;PMS5003;61846;52.970;-3.168;2022-09-14T11:08:16;3;3;
73565;PMS5003;61846;52.970;-3.168;2022-09-14T11:10:41;24;17;
73565;PMS5003;61846;52.970;-3.168;2022-09-14T11:15:31;5;3;
73565;PMS5003;61846;52.970;-3.168;2022-09-14T11:17:58;0;0;
73565;PMS5003;61846;52.970;-3.168;2022-09-14T11:20:22;2;2;
73565;PMS5003;61846;52.970;-3.168;2022-09-14T11:22:46;1;0;
73565;PMS5003;61846;52.970;-3.168;2022-09-14T11:25:11;1;1;
73565;PMS5003;61846;52.970;-3.168;2022-09-14T11:27:37;1;1;
73565;PMS5003;61846;52.970;-3.168;2022-09-14T11:30:02;2;2;
73565;PMS5003;61846;52.970;-3.168;2022-09-14T11:32:27;1;1;
73565;PMS5003;61846;52.970;-3.168;2022-09-14T11:34:52;1;1;
73565;PMS5003;61846;52.970;-3.168;2022-09-14T11:37:18;1;1;
73565;PMS5003;61846;52.970;-3.168;2022-09-14T11:39:43;2;2;
73565;PMS5003;61846;52.970;-3.168;2022-09-14T11:42:08;2;2;
73565;PMS5003;61846;52.970;-3.168;2022-09-14T11:44:34;4;3;
73565;PMS5003;61846;52.970;-3.168;2022-09-14T11:47:00;2;2;
73565;PMS5003;61846;52.970;-3.168;2022-09-14T11:49:24;1;1;
73565;PMS5003;61846;52.970;-3.168;2022-09-14T11:51:50;3;2;
73565;PMS5003;61846;52.970;-3.168;2022-09-14T11:54:14;3;1;
73565;PMS5003;61846;52.970;-3.168;2022-09-14T11:56:39;1;1;
73565;PMS5003;61846;52.970;-3.168;2022-09-14T11:59:05;1;1;
73565;PMS5003;61846;52.970;-3.168;2022-09-14T12:01:31;2;2;
73565;PMS5003;61846;52.970;-3.168;2022-09-14T12:08:45;5;2;
73565;PMS5003;61846;52.970;-3.168;2022-09-14T12:13:36;0;0;
73565;PMS5003;61846;52.970;-3.168;2022-09-14T12:16:02;2;1;
73565;PMS5003;61846;52.970;-3.168;2022-09-14T12:18:27;2;2;
73565;PMS5003;61846;52.970;-3.168;2022-09-14T12:21:01;2;2;
73565;PMS5003;61846;52.970;-3.168;2022-09-14T12:23:20;1;1;
73565;PMS5003;61846;52.970;-3.168;2022-09-14T12:30:34;3;3;
73565;PMS5003;61846;52.970;-3.168;2022-09-14T12:32:58;3;2;
73565;PMS5003;61846;52.970;-3.168;2022-09-14T12:37:49;3;3;
73565;PMS5003;61846;52.970;-3.168;2022-09-14T12:42:39;1;1;
73565;PMS5003;61846;52.970;-3.168;2022-09-14T12:47:37;2;2;
73565;PMS5003;61846;52.970;-3.168;2022-09-14T12:49:55;1;1;
73565;PMS5003;61846;52.970;-3.168;2022-09-14T12:52:26;2;2;
73565;PMS5003;61846;52.970;-3.168;2022-09-14T12:54:50;4;3;
73565;PMS5003;61846;52.970;-3.168;2022-09-14T12:57:18;4;4;
73565;PMS5003;61846;52.970;-3.168;2022-09-14T12:59:40;3;2;
73565;PMS5003;61846;52.970;-3.168;2022-09-14T13:02:09;2;2;
73565;PMS5003;61846;52.970;-3.168;2022-09-14T13:04:28;3;3;
73565;PMS5003;61846;52.970;-3.168;2022-09-14T13:06:53;2;1;
73565;PMS5003;61846;52.970;-3.168;2022-09-14T13:09:19;1;1;
73565;PMS5003;61846;52.970;-3.168;2022-09-14T13:11:43;3;2;
73565;PMS5003;61846;52.970;-3.168;2022-09-14T13:14:11;1;1;
73565;PMS5003;61846;52.970;-3.168;2022-09-14T13:16:36;1;1;
73565;PMS5003;61846;52.970;-3.168;2022-09-14T13:18:59;1;1;
73565;PMS5003;61846;52.970;-3.168;2022-09-14T13:21:24;4;2;
73565;PMS5003;61846;52.970;-3.168;2022-09-14T13:23:50;3;3;
73565;PMS5003;61846;52.970;-3.168;2022-09-14T13:26:17;1;1;
73565;PMS5003;61846;52.970;-3.168;2022-09-14T13:28:41;2;2;
73565;PMS5003;61846;52.970;-3.168;2022-09-14T13:31:10;2;2;
73565;PMS5003;61846;52.970;-3.168;2022-09-14T13:33:31;4;2;
73565;PMS5003;61846;52.970;-3.168;2022-09-14T13:35:58;0;0;
73565;PMS5003;61846;52.970;-3.168;2022-09-14T13:38:23;2;2;
73565;PMS5003;61846;52.970;-3.168;2022-09-14T13:40:47;2;2;
73565;PMS5003;61846;52.970;-3.168;2022-09-14T13:43:12;0;0;
73565;PMS5003;61846;52.970;-3.168;2022-09-14T13:45:38;1;1;
73565;PMS5003;61846;52.970;-3.168;2022-09-14T13:48:04;1;1;
73565;PMS5003;61846;52.970;-3.168;2022-09-14T13:50:29;4;3;
73565;PMS5003;61846;52.970;-3.168;2022-09-14T13:52:54;3;3;
73565;PMS5003;61846;52.970;-3.168;2022-09-14T13:55:21;3;0;
73565;PMS5003;61846;52.970;-3.168;2022-09-14T14:00:15;1;1;
73565;PMS5003;61846;52.970;-3.168;2022-09-14T14:02:35;3;1;
73565;PMS5003;61846;52.970;-3.168;2022-09-14T14:05:00;0;0;
73565;PMS5003;61846;52.970;-3.168;2022-09-14T14:07:28;1;1;
73565;PMS5003;61846;52.970;-3.168;2022-09-14T14:09:53;5;2;
73565;PMS5003;61846;52.970;-3.168;2022-09-14T14:12:21;2;2;
73565;PMS5003;61846;52.970;-3.168;2022-09-14T14:14:42;1;1;
73565;PMS5003;61846;52.970;-3.168;2022-09-14T14:19:32;3;2;
73565;PMS5003;61846;52.970;-3.168;2022-09-14T14:24:24;1;1;
73565;PMS5003;61846;52.970;-3.168;2022-09-14T14:26:49;1;1;
73565;PMS5003;61846;52.970;-3.168;2022-09-14T14:29:14;1;1;
73565;PMS5003;61846;52.970;-3.168;2022-09-14T14:31:39;0;0;
73565;PMS5003;61846;52.970;-3.168;2022-09-14T14:34:09;2;1;
73565;PMS5003;61846;52.970;-3.168;2022-09-14T14:36:30;2;2;
73565;PMS5003;61846;52.970;-3.168;2022-09-14T14:38:55;2;2;
73565;PMS5003;61846;52.970;-3.168;2022-09-14T14:41:20;0;0;
73565;PMS5003;61846;52.970;-3.168;2022-09-14T14:43:46;0;0;
73565;PMS5003;61846;52.970;-3.168;2022-09-14T14:46:12;1;1;
73565;PMS5003;61846;52.970;-3.168;2022-09-14T14:48:37;1;1;
73565;PMS5003;61846;52.970;-3.168;2022-09-14T14:51:02;1;1;
73565;PMS5003;61846;52.970;-3.168;2022-09-14T14:53:27;1;1;
73565;PMS5003;61846;52.970;-3.168;2022-09-14T14:55:53;1;1;
73565;PMS5003;61846;52.970;-3.168;2022-09-14T14:58:18;0;0;
73565;PMS5003;61846;52.970;-3.168;2022-09-14T15:00:44;0;0;
73565;PMS5003;61846;52.970;-3.168;2022-09-14T15:03:09;0;0;
73565;PMS5003;61846;52.970;-3.168;2022-09-14T15:05:38;2;0;
73565;PMS5003;61846;52.970;-3.168;2022-09-14T15:08:00;0;0;
73565;PMS5003;61846;52.970;-3.168;2022-09-14T15:10:26;0;0;
73565;PMS5003;61846;52.970;-3.168;2022-09-14T15:12:50;2;2;
73565;PMS5003;61846;52.970;-3.168;2022-09-14T15:15:18;1;1;
73565;PMS5003;61846;52.970;-3.168;2022-09-14T15:17:41;1;0;
73565;PMS5003;61846;52.970;-3.168;2022-09-14T15:20:07;1;1;
73565;PMS5003;61846;52.970;-3.168;2022-09-14T15:22:32;1;1;
73565;PMS5003;61846;52.970;-3.168;2022-09-14T15:24:57;1;1;
73565;PMS5003;61846;52.970;-3.168;2022-09-14T15:27:23;0;0;
73565;PMS5003;61846;52.970;-3.168;2022-09-14T15:29:48;2;2;
73565;PMS5003;61846;52.970;-3.168;2022-09-14T15:32:13;1;0;
73565;PMS5003;61846;52.970;-3.168;2022-09-14T15:34:39;2;1;
73565;PMS5003;61846;52.970;-3.168;2022-09-14T15:37:04;3;3;
73565;PMS5003;61846;52.970;-3.168;2022-09-14T15:39:29;1;1;
73565;PMS5003;61846;52.970;-3.168;2022-09-14T15:41:55;1;1;
73565;PMS5003;61846;52.970;-3.168;2022-09-14T15:44:20;1;1;
73565;PMS5003;61846;52.970;-3.168;2022-09-14T15:46:46;3;3;
73565;PMS5003;61846;52.970;-3.168;2022-09-14T15:49:12;2;1;
73565;PMS5003;61846;52.970;-3.168;2022-09-14T15:51:36;3;2;
73565;PMS5003;61846;52.970;-3.168;2022-09-14T15:54:02;2;2;
73565;PMS5003;61846;52.970;-3.168;2022-09-14T15:56:27;1;1;
73565;PMS5003;61846;52.970;-3.168;2022-09-14T15:58:53;3;1;
73565;PMS5003;61846;52.970;-3.168;2022-09-14T16:01:18;1;1;
73565;PMS5003;61846;52.970;-3.168;2022-09-14T16:03:43;3;1;
73565;PMS5003;61846;52.970;-3.168;2022-09-14T16:06:09;1;1;
73565;PMS5003;61846;52.970;-3.168;2022-09-14T16:08:34;2;1;
73565;PMS5003;61846;52.970;-3.168;2022-09-14T16:11:00;2;1;
73565;PMS5003;61846;52.970;-3.168;2022-09-14T16:13:25;2;2;
73565;PMS5003;61846;52.970;-3.168;2022-09-14T16:15:50;1;0;
73565;PMS5003;61846;52.970;-3.168;2022-09-14T16:18:16;2;2;
73565;PMS5003;61846;52.970;-3.168;2022-09-14T16:20:41;2;1;
73565;PMS5003;61846;52.970;-3.168;2022-09-14T16:23:06;4;3;
73565;PMS5003;61846;52.970;-3.168;2022-09-14T16:25:35;5;3;
73565;PMS5003;61846;52.970;-3.168;2022-09-14T16:27:57;1;1;
73565;PMS5003;61846;52.970;-3.168;2022-09-14T16:30:22;2;2;
73565;PMS5003;61846;52.970;-3.168;2022-09-14T16:32:48;1;1;
73565;PMS5003;61846;52.970;-3.168;2022-09-14T16:35:13;1;1;
73565;PMS5003;61846;52.970;-3.168;2022-09-14T16:37:38;3;3;
73565;PMS5003;61846;52.970;-3.168;2022-09-14T16:40:04;2;0;
73565;PMS5003;61846;52.970;-3.168;2022-09-14T16:42:29;2;2;
73565;PMS5003;61846;52.970;-3.168;2022-09-14T16:44:55;0;0;
73565;PMS5003;61846;52.970;-3.168;2022-09-14T16:47:20;2;1;
73565;PMS5003;61846;52.970;-3.168;2022-09-14T16:49:45;2;1;